sensor_id;sensor_type;location;lat;lon;timestamp;temperature;humidity
9919;DHT22;4998;51.024;13.828;2024-03-23T00:52:41;14.50;68.60
9919;DHT22;4998;51.024;13.828;2024-03-23T00:55:08;14.50;68.70
9919;DHT22;4998;51.024;13.828;2024-03-23T00:57:35;14.40;68.60
9919;DHT22;4998;51.024;13.828;2024-03-23T01:00:01;14.40;68.30
9919;DHT22;4998;51.024;13.828;2024-03-23T01:02:31;14.40;68.50
9919;DHT22;4998;51.024;13.828;2024-03-23T01:04:57;14.30;68.40
9919;DHT22;4998;51.024;13.828;2024-03-23T01:07:24;14.30;68.60
9919;DHT22;4998;51.024;13.828;2024-03-23T01:09:51;14.30;68.60
9919;DHT22;4998;51.024;13.828;2024-03-23T01:12:19;14.30;68.90
9919;DHT22;4998;51.024;13.828;2024-03-23T01:14:45;14.20;68.90
9919;DHT22;4998;51.024;13.828;2024-03-23T01:17:12;14.20;69.00
9919;DHT22;4998;51.024;13.828;2024-03-23T01:19:38;14.20;69.10
9919;DHT22;4998;51.024;13.828;2024-03-23T01:22:07;14.20;69.30
9919;DHT22;4998;51.024;13.828;2024-03-23T01:24:33;14.20;69.40
9919;DHT22;4998;51.024;13.828;2024-03-23T01:27:01;14.20;69.60
9919;DHT22;4998;51.024;13.828;2024-03-23T01:29:27;14.20;69.90
9919;DHT22;4998;51.024;13.828;2024-03-23T01:31:54;14.10;69.90
9919;DHT22;4998;51.024;13.828;2024-03-23T01:34:20;14.10;70.10
9919;DHT22;4998;51.024;13.828;2024-03-23T01:36:47;14.10;70.30
9919;DHT22;4998;51.024;13.828;2024-03-23T01:39:13;14.10;70.30
9919;DHT22;4998;51.024;13.828;2024-03-23T01:41:41;14.10;70.40
9919;DHT22;4998;51.024;13.828;2024-03-23T01:44:10;14.10;70.50
9919;DHT22;4998;51.024;13.828;2024-03-23T01:46:38;14.00;70.60
9919;DHT22;4998;51.024;13.828;2024-03-23T01:49:05;14.00;70.60
9919;DHT22;4998;51.024;13.828;2024-03-23T01:51:32;14.00;70.70
9919;DHT22;4998;51.024;13.828;2024-03-23T01:54:00;14.00;70.70
9919;DHT22;4998;51.024;13.828;2024-03-23T01:56:29;14.00;70.90
9919;DHT22;4998;51.024;13.828;2024-03-23T01:58:55;14.00;70.80
9919;DHT22;4998;51.024;13.828;2024-03-23T02:01:24;14.00;71.00
9919;DHT22;4998;51.024;13.828;2024-03-23T02:03:50;14.00;71.20
9919;DHT22;4998;51.024;13.828;2024-03-23T02:06:18;13.90;71.00
9919;DHT22;4998;51.024;13.828;2024-03-23T02:08:44;13.90;71.00
9919;DHT22;4998;51.024;13.828;2024-03-23T02:11:11;13.90;71.00
9919;DHT22;4998;51.024;13.828;2024-03-23T02:13:37;13.90;71.90
9919;DHT22;4998;51.024;13.828;2024-03-23T02:16:05;13.80;70.90
9919;DHT22;4998;51.024;13.828;2024-03-23T02:18:33;13.80;71.10
9919;DHT22;4998;51.024;13.828;2024-03-23T02:21:00;13.80;71.20
9919;DHT22;4998;51.024;13.828;2024-03-23T02:23:27;13.70;71.10
9919;DHT22;4998;51.024;13.828;2024-03-23T02:25:54;13.70;71.30
9919;DHT22;4998;51.024;13.828;2024-03-23T02:28:20;13.60;71.20
9919;DHT22;4998;51.024;13.828;2024-03-23T02:30:48;13.60;71.30
9919;DHT22;4998;51.024;13.828;2024-03-23T02:33:14;13.60;71.40
9919;DHT22;4998;51.024;13.828;2024-03-23T02:35:41;13.50;71.40
9919;DHT22;4998;51.024;13.828;2024-03-23T02:38:07;13.50;71.50
9919;DHT22;4998;51.024;13.828;2024-03-23T02:40:36;13.50;71.70
9919;DHT22;4998;51.024;13.828;2024-03-23T02:43:03;13.40;71.90
9919;DHT22;4998;51.024;13.828;2024-03-23T02:45:30;13.40;72.00
9919;DHT22;4998;51.024;13.828;2024-03-23T02:47:56;13.40;72.10
9919;DHT22;4998;51.024;13.828;2024-03-23T02:50:23;13.40;72.40
9919;DHT22;4998;51.024;13.828;2024-03-23T02:52:50;13.40;72.50
9919;DHT22;4998;51.024;13.828;2024-03-23T02:55:18;13.30;72.70
9919;DHT22;4998;51.024;13.828;2024-03-23T02:57:46;13.30;72.90
9919;DHT22;4998;51.024;13.828;2024-03-23T03:00:13;13.30;73.20
9919;DHT22;4998;51.024;13.828;2024-03-23T03:02:39;13.30;73.20
9919;DHT22;4998;51.024;13.828;2024-03-23T03:05:06;13.30;73.30
9919;DHT22;4998;51.024;13.828;2024-03-23T03:07:34;13.30;73.40
9919;DHT22;4998;51.024;13.828;2024-03-23T03:10:04;13.30;73.50
9919;DHT22;4998;51.024;13.828;2024-03-23T03:12:32;13.30;73.50
9919;DHT22;4998;51.024;13.828;2024-03-23T03:15:00;13.30;73.60
9919;DHT22;4998;51.024;13.828;2024-03-23T03:17:26;13.30;73.80
9919;DHT22;4998;51.024;13.828;2024-03-23T03:19:53;13.30;73.60
9919;DHT22;4998;51.024;13.828;2024-03-23T03:22:21;13.30;73.60
9919;DHT22;4998;51.024;13.828;2024-03-23T03:24:48;13.30;73.60
9919;DHT22;4998;51.024;13.828;2024-03-23T03:27:14;13.30;73.50
9919;DHT22;4998;51.024;13.828;2024-03-23T03:29:41;13.30;73.70
9919;DHT22;4998;51.024;13.828;2024-03-23T03:32:09;13.30;73.50
9919;DHT22;4998;51.024;13.828;2024-03-23T03:34:36;13.20;73.60
9919;DHT22;4998;51.024;13.828;2024-03-23T03:37:02;13.20;73.50
9919;DHT22;4998;51.024;13.828;2024-03-23T03:39:29;13.20;73.60
9919;DHT22;4998;51.024;13.828;2024-03-23T03:41:55;13.10;73.50
9919;DHT22;4998;51.024;13.828;2024-03-23T03:44:22;13.10;73.50
9919;DHT22;4998;51.024;13.828;2024-03-23T03:46:48;13.10;73.70
9919;DHT22;4998;51.024;13.828;2024-03-23T03:49:17;13.00;73.80
9919;DHT22;4998;51.024;13.828;2024-03-23T03:51:43;13.00;74.20
9919;DHT22;4998;51.024;13.828;2024-03-23T03:54:10;13.00;74.40
9919;DHT22;4998;51.024;13.828;2024-03-23T03:56:36;12.90;74.50
9919;DHT22;4998;51.024;13.828;2024-03-23T03:59:03;12.90;74.70
9919;DHT22;4998;51.024;13.828;2024-03-23T04:01:30;12.90;74.90
9919;DHT22;4998;51.024;13.828;2024-03-23T04:03:57;12.90;74.90
9919;DHT22;4998;51.024;13.828;2024-03-23T04:06:24;12.90;74.80
9919;DHT22;4998;51.024;13.828;2024-03-23T04:08:51;12.90;75.10
9919;DHT22;4998;51.024;13.828;2024-03-23T04:11:17;12.90;74.90
9919;DHT22;4998;51.024;13.828;2024-03-23T04:13:44;12.90;74.90
9919;DHT22;4998;51.024;13.828;2024-03-23T04:16:10;12.90;75.00
9919;DHT22;4998;51.024;13.828;2024-03-23T04:18:38;12.90;75.00
9919;DHT22;4998;51.024;13.828;2024-03-23T04:21:05;12.80;74.90
9919;DHT22;4998;51.024;13.828;2024-03-23T04:23:32;12.90;75.00
9919;DHT22;4998;51.024;13.828;2024-03-23T04:26:03;12.80;75.90
9919;DHT22;4998;51.024;13.828;2024-03-23T04:28:29;12.80;75.30
9919;DHT22;4998;51.024;13.828;2024-03-23T04:30:57;12.80;75.00
9919;DHT22;4998;51.024;13.828;2024-03-23T04:33:23;12.70;74.90
9919;DHT22;4998;51.024;13.828;2024-03-23T04:35:50;12.70;74.80
9919;DHT22;4998;51.024;13.828;2024-03-23T04:38:16;12.70;75.00
9919;DHT22;4998;51.024;13.828;2024-03-23T04:40:44;12.60;75.00
9919;DHT22;4998;51.024;13.828;2024-03-23T04:43:11;12.60;75.30
9919;DHT22;4998;51.024;13.828;2024-03-23T04:45:39;12.50;75.10
9919;DHT22;4998;51.024;13.828;2024-03-23T04:48:07;12.50;75.30
9919;DHT22;4998;51.024;13.828;2024-03-23T04:50:34;12.40;75.40
9919;DHT22;4998;51.024;13.828;2024-03-23T04:53:01;12.40;75.50
9919;DHT22;4998;51.024;13.828;2024-03-23T04:55:28;12.40;75.60
9919;DHT22;4998;51.024;13.828;2024-03-23T04:57:58;12.40;76.60
9919;DHT22;4998;51.024;13.828;2024-03-23T05:00:24;12.30;75.80
9919;DHT22;4998;51.024;13.828;2024-03-23T05:02:52;12.30;75.80
9919;DHT22;4998;51.024;13.828;2024-03-23T05:05:18;12.20;75.90
9919;DHT22;4998;51.024;13.828;2024-03-23T05:07:46;12.20;76.10
9919;DHT22;4998;51.024;13.828;2024-03-23T05:10:12;12.20;76.10
9919;DHT22;4998;51.024;13.828;2024-03-23T05:12:39;12.20;76.20
9919;DHT22;4998;51.024;13.828;2024-03-23T05:15:07;12.10;77.00
9919;DHT22;4998;51.024;13.828;2024-03-23T05:17:34;12.10;76.50
9919;DHT22;4998;51.024;13.828;2024-03-23T05:20:01;12.10;76.60
9919;DHT22;4998;51.024;13.828;2024-03-23T05:22:29;12.00;76.60
9919;DHT22;4998;51.024;13.828;2024-03-23T05:24:55;12.00;76.70
9919;DHT22;4998;51.024;13.828;2024-03-23T05:27:22;12.00;76.80
9919;DHT22;4998;51.024;13.828;2024-03-23T05:29:48;12.00;77.10
9919;DHT22;4998;51.024;13.828;2024-03-23T05:32:17;11.90;77.20
9919;DHT22;4998;51.024;13.828;2024-03-23T05:34:44;11.90;77.70
9919;DHT22;4998;51.024;13.828;2024-03-23T05:37:11;11.90;77.90
9919;DHT22;4998;51.024;13.828;2024-03-23T05:39:37;11.90;78.10
9919;DHT22;4998;51.024;13.828;2024-03-23T05:42:05;11.90;78.20
9919;DHT22;4998;51.024;13.828;2024-03-23T05:44:31;12.00;78.40
9919;DHT22;4998;51.024;13.828;2024-03-23T05:46:58;11.90;78.40
9919;DHT22;4998;51.024;13.828;2024-03-23T05:49:25;11.90;78.60
9919;DHT22;4998;51.024;13.828;2024-03-23T05:51:52;12.00;79.00
9919;DHT22;4998;51.024;13.828;2024-03-23T05:54:21;12.00;79.00
9919;DHT22;4998;51.024;13.828;2024-03-23T05:56:48;12.00;79.00
9919;DHT22;4998;51.024;13.828;2024-03-23T05:59:14;12.00;79.20
9919;DHT22;4998;51.024;13.828;2024-03-23T06:01:41;12.10;79.60
9919;DHT22;4998;51.024;13.828;2024-03-23T06:04:07;12.10;79.70
9919;DHT22;4998;51.024;13.828;2024-03-23T06:06:35;12.20;80.00
9919;DHT22;4998;51.024;13.828;2024-03-23T06:09:01;12.20;80.10
9919;DHT22;4998;51.024;13.828;2024-03-23T06:11:28;12.30;80.00
9919;DHT22;4998;51.024;13.828;2024-03-23T06:13:55;12.30;80.10
9919;DHT22;4998;51.024;13.828;2024-03-23T06:16:23;12.30;80.10
9919;DHT22;4998;51.024;13.828;2024-03-23T06:18:50;12.40;80.10
9919;DHT22;4998;51.024;13.828;2024-03-23T06:21:17;12.40;80.00
9919;DHT22;4998;51.024;13.828;2024-03-23T06:23:45;12.50;80.00
9919;DHT22;4998;51.024;13.828;2024-03-23T06:26:16;12.50;80.20
9919;DHT22;4998;51.024;13.828;2024-03-23T06:28:42;12.60;80.00
9919;DHT22;4998;51.024;13.828;2024-03-23T06:31:09;12.60;80.00
9919;DHT22;4998;51.024;13.828;2024-03-23T06:33:36;12.60;80.00
9919;DHT22;4998;51.024;13.828;2024-03-23T06:36:03;12.70;80.10
9919;DHT22;4998;51.024;13.828;2024-03-23T06:38:30;12.70;80.00
9919;DHT22;4998;51.024;13.828;2024-03-23T06:40:58;12.70;80.00
9919;DHT22;4998;51.024;13.828;2024-03-23T06:43:24;12.70;80.30
9919;DHT22;4998;51.024;13.828;2024-03-23T06:45:54;12.70;80.20
9919;DHT22;4998;51.024;13.828;2024-03-23T06:48:21;12.70;80.40
9919;DHT22;4998;51.024;13.828;2024-03-23T06:50:48;12.80;80.40
9919;DHT22;4998;51.024;13.828;2024-03-23T06:53:15;12.80;80.50
9919;DHT22;4998;51.024;13.828;2024-03-23T06:55:42;12.80;80.60
9919;DHT22;4998;51.024;13.828;2024-03-23T06:58:17;12.80;80.60
9919;DHT22;4998;51.024;13.828;2024-03-23T07:00:44;12.80;80.80
9919;DHT22;4998;51.024;13.828;2024-03-23T07:03:10;12.90;80.90
9919;DHT22;4998;51.024;13.828;2024-03-23T07:05:37;12.80;80.90
9919;DHT22;4998;51.024;13.828;2024-03-23T07:08:04;12.80;81.00
9919;DHT22;4998;51.024;13.828;2024-03-23T07:10:31;12.90;81.20
9919;DHT22;4998;51.024;13.828;2024-03-23T07:12:57;12.90;81.30
9919;DHT22;4998;51.024;13.828;2024-03-23T07:15:25;12.90;81.50
9919;DHT22;4998;51.024;13.828;2024-03-23T07:17:51;12.90;81.60
9919;DHT22;4998;51.024;13.828;2024-03-23T07:20:18;13.00;81.60
9919;DHT22;4998;51.024;13.828;2024-03-23T07:22:45;13.00;81.50
9919;DHT22;4998;51.024;13.828;2024-03-23T07:25:13;13.00;81.50
9919;DHT22;4998;51.024;13.828;2024-03-23T07:27:39;13.00;81.50
9919;DHT22;4998;51.024;13.828;2024-03-23T07:30:07;13.00;81.40
9919;DHT22;4998;51.024;13.828;2024-03-23T07:32:36;13.00;81.30
9919;DHT22;4998;51.024;13.828;2024-03-23T07:35:03;13.00;81.50
9919;DHT22;4998;51.024;13.828;2024-03-23T07:37:30;13.00;81.60
9919;DHT22;4998;51.024;13.828;2024-03-23T07:39:56;13.00;81.80
9919;DHT22;4998;51.024;13.828;2024-03-23T07:42:25;13.00;82.00
9919;DHT22;4998;51.024;13.828;2024-03-23T07:44:52;13.00;82.10
9919;DHT22;4998;51.024;13.828;2024-03-23T07:47:20;13.00;82.40
9919;DHT22;4998;51.024;13.828;2024-03-23T07:49:48;13.00;82.50
9919;DHT22;4998;51.024;13.828;2024-03-23T07:52:15;13.00;82.80
9919;DHT22;4998;51.024;13.828;2024-03-23T07:54:41;13.00;82.60
9919;DHT22;4998;51.024;13.828;2024-03-23T07:57:08;13.10;82.80
9919;DHT22;4998;51.024;13.828;2024-03-23T07:59:34;13.10;82.80
9919;DHT22;4998;51.024;13.828;2024-03-23T08:02:01;13.10;83.00
9919;DHT22;4998;51.024;13.828;2024-03-23T08:04:27;13.10;83.30
9919;DHT22;4998;51.024;13.828;2024-03-23T08:06:56;13.20;83.70
9919;DHT22;4998;51.024;13.828;2024-03-23T08:09:22;13.20;84.10
9919;DHT22;4998;51.024;13.828;2024-03-23T08:11:49;13.30;84.20
9919;DHT22;4998;51.024;13.828;2024-03-23T08:14:15;13.40;84.20
9919;DHT22;4998;51.024;13.828;2024-03-23T08:16:43;13.40;84.10
9919;DHT22;4998;51.024;13.828;2024-03-23T08:19:14;13.50;84.10
9919;DHT22;4998;51.024;13.828;2024-03-23T08:21:40;13.60;84.00
9919;DHT22;4998;51.024;13.828;2024-03-23T08:24:08;13.60;83.80
9919;DHT22;4998;51.024;13.828;2024-03-23T08:26:35;13.70;83.70
9919;DHT22;4998;51.024;13.828;2024-03-23T08:29:03;13.80;83.70
9919;DHT22;4998;51.024;13.828;2024-03-23T08:31:29;13.80;83.60
9919;DHT22;4998;51.024;13.828;2024-03-23T08:33:56;13.90;83.60
9919;DHT22;4998;51.024;13.828;2024-03-23T08:36:23;13.90;83.70
9919;DHT22;4998;51.024;13.828;2024-03-23T08:38:49;13.90;83.80
9919;DHT22;4998;51.024;13.828;2024-03-23T08:41:20;14.00;84.10
9919;DHT22;4998;51.024;13.828;2024-03-23T08:43:46;14.00;84.30
9919;DHT22;4998;51.024;13.828;2024-03-23T08:46:15;14.10;84.40
9919;DHT22;4998;51.024;13.828;2024-03-23T08:48:42;14.20;84.60
9919;DHT22;4998;51.024;13.828;2024-03-23T08:51:11;14.20;84.60
9919;DHT22;4998;51.024;13.828;2024-03-23T08:53:38;14.30;84.60
9919;DHT22;4998;51.024;13.828;2024-03-23T08:56:06;14.40;84.50
9919;DHT22;4998;51.024;13.828;2024-03-23T08:58:34;14.40;84.20
9919;DHT22;4998;51.024;13.828;2024-03-23T09:01:06;14.40;84.00
9919;DHT22;4998;51.024;13.828;2024-03-23T09:03:34;14.40;83.90
9919;DHT22;4998;51.024;13.828;2024-03-23T09:06:01;14.40;83.90
9919;DHT22;4998;51.024;13.828;2024-03-23T09:08:28;14.40;84.00
9919;DHT22;4998;51.024;13.828;2024-03-23T09:10:54;14.40;84.20
9919;DHT22;4998;51.024;13.828;2024-03-23T09:13:21;14.40;84.40
9919;DHT22;4998;51.024;13.828;2024-03-23T09:15:49;14.50;84.60
9919;DHT22;4998;51.024;13.828;2024-03-23T09:18:17;14.50;84.80
9919;DHT22;4998;51.024;13.828;2024-03-23T09:20:44;14.50;84.60
9919;DHT22;4998;51.024;13.828;2024-03-23T09:23:10;14.50;84.80
9919;DHT22;4998;51.024;13.828;2024-03-23T09:25:37;14.50;84.80
9919;DHT22;4998;51.024;13.828;2024-03-23T09:28:05;14.60;84.90
9919;DHT22;4998;51.024;13.828;2024-03-23T09:30:32;14.60;84.80
9919;DHT22;4998;51.024;13.828;2024-03-23T09:33:00;14.60;84.70
9919;DHT22;4998;51.024;13.828;2024-03-23T09:35:27;14.60;84.80
9919;DHT22;4998;51.024;13.828;2024-03-23T09:37:53;14.60;84.50
9919;DHT22;4998;51.024;13.828;2024-03-23T09:40:21;14.70;84.90
9919;DHT22;4998;51.024;13.828;2024-03-23T09:42:50;14.70;85.10
9919;DHT22;4998;51.024;13.828;2024-03-23T09:45:21;14.70;85.20
9919;DHT22;4998;51.024;13.828;2024-03-23T09:47:47;14.80;85.30
9919;DHT22;4998;51.024;13.828;2024-03-23T09:50:17;14.80;84.90
9919;DHT22;4998;51.024;13.828;2024-03-23T09:52:46;14.90;84.90
9919;DHT22;4998;51.024;13.828;2024-03-23T09:55:13;14.90;85.40
9919;DHT22;4998;51.024;13.828;2024-03-23T09:57:39;14.90;85.10
9919;DHT22;4998;51.024;13.828;2024-03-23T10:00:07;14.80;84.40
9919;DHT22;4998;51.024;13.828;2024-03-23T10:02:34;14.70;84.20
9919;DHT22;4998;51.024;13.828;2024-03-23T10:05:01;14.60;84.50
9919;DHT22;4998;51.024;13.828;2024-03-23T10:07:29;14.50;84.10
9919;DHT22;4998;51.024;13.828;2024-03-23T10:09:56;14.30;82.90
9919;DHT22;4998;51.024;13.828;2024-03-23T10:12:23;14.00;81.90
9919;DHT22;4998;51.024;13.828;2024-03-23T10:14:51;13.70;81.50
9919;DHT22;4998;51.024;13.828;2024-03-23T10:17:19;13.40;81.20
9919;DHT22;4998;51.024;13.828;2024-03-23T10:19:46;13.20;81.70
9919;DHT22;4998;51.024;13.828;2024-03-23T10:22:19;12.90;82.00
9919;DHT22;4998;51.024;13.828;2024-03-23T10:24:47;12.60;82.10
9919;DHT22;4998;51.024;13.828;2024-03-23T10:27:16;12.40;81.70
9919;DHT22;4998;51.024;13.828;2024-03-23T10:29:43;12.10;81.10
9919;DHT22;4998;51.024;13.828;2024-03-23T10:32:12;11.80;80.30
9919;DHT22;4998;51.024;13.828;2024-03-23T10:34:38;11.60;80.20
9919;DHT22;4998;51.024;13.828;2024-03-23T10:37:06;11.40;80.60
9919;DHT22;4998;51.024;13.828;2024-03-23T10:39:33;11.10;80.70
9919;DHT22;4998;51.024;13.828;2024-03-23T10:42:04;11.00;80.90
9919;DHT22;4998;51.024;13.828;2024-03-23T10:44:31;10.80;80.90
9919;DHT22;4998;51.024;13.828;2024-03-23T10:46:59;10.60;80.90
9919;DHT22;4998;51.024;13.828;2024-03-23T10:49:29;10.40;81.00
9919;DHT22;4998;51.024;13.828;2024-03-23T10:51:58;10.30;81.20
9919;DHT22;4998;51.024;13.828;2024-03-23T10:54:25;10.20;81.60
9919;DHT22;4998;51.024;13.828;2024-03-23T10:56:56;10.00;81.80
9919;DHT22;4998;51.024;13.828;2024-03-23T10:59:25;9.80;83.40
9919;DHT22;4998;51.024;13.828;2024-03-23T11:01:56;9.70;83.50
9919;DHT22;4998;51.024;13.828;2024-03-23T11:04:36;9.60;83.90
9919;DHT22;4998;51.024;13.828;2024-03-23T11:07:30;9.40;84.20
9919;DHT22;4998;51.024;13.828;2024-03-23T11:09:58;9.30;84.40
9919;DHT22;4998;51.024;13.828;2024-03-23T11:12:29;9.20;84.80
9919;DHT22;4998;51.024;13.828;2024-03-23T11:15:01;9.10;85.50
9919;DHT22;4998;51.024;13.828;2024-03-23T11:17:28;9.10;85.70
9919;DHT22;4998;51.024;13.828;2024-03-23T11:19:57;9.00;85.90
9919;DHT22;4998;51.024;13.828;2024-03-23T11:22:39;8.90;86.60
9919;DHT22;4998;51.024;13.828;2024-03-23T11:25:17;8.90;86.90
9919;DHT22;4998;51.024;13.828;2024-03-23T11:27:44;8.90;87.90
9919;DHT22;4998;51.024;13.828;2024-03-23T11:30:15;8.80;88.00
9919;DHT22;4998;51.024;13.828;2024-03-23T11:32:42;8.80;88.10
9919;DHT22;4998;51.024;13.828;2024-03-23T11:35:10;8.80;88.30
9919;DHT22;4998;51.024;13.828;2024-03-23T11:37:37;8.90;88.50
9919;DHT22;4998;51.024;13.828;2024-03-23T11:40:20;8.90;88.30
9919;DHT22;4998;51.024;13.828;2024-03-23T11:42:46;8.90;88.40
9919;DHT22;4998;51.024;13.828;2024-03-23T11:45:15;8.90;88.20
9919;DHT22;4998;51.024;13.828;2024-03-23T11:47:44;8.80;88.30
9919;DHT22;4998;51.024;13.828;2024-03-23T11:50:19;8.80;88.20
9919;DHT22;4998;51.024;13.828;2024-03-23T11:52:45;8.80;88.40
9919;DHT22;4998;51.024;13.828;2024-03-23T11:55:13;8.80;88.30
9919;DHT22;4998;51.024;13.828;2024-03-23T11:57:39;8.80;88.60
9919;DHT22;4998;51.024;13.828;2024-03-23T12:00:23;8.80;88.60
9919;DHT22;4998;51.024;13.828;2024-03-23T12:02:49;8.80;88.80
9919;DHT22;4998;51.024;13.828;2024-03-23T12:05:17;8.70;88.50
9919;DHT22;4998;51.024;13.828;2024-03-23T12:07:43;8.80;89.00
9919;DHT22;4998;51.024;13.828;2024-03-23T12:10:11;8.80;89.30
9919;DHT22;4998;51.024;13.828;2024-03-23T12:12:36;8.80;89.50
9919;DHT22;4998;51.024;13.828;2024-03-23T12:15:05;8.80;89.50
9919;DHT22;4998;51.024;13.828;2024-03-23T12:17:33;8.80;89.30
9919;DHT22;4998;51.024;13.828;2024-03-23T12:20:01;8.80;89.50
9919;DHT22;4998;51.024;13.828;2024-03-23T12:22:28;8.90;89.50
9919;DHT22;4998;51.024;13.828;2024-03-23T12:24:56;8.90;89.30
9919;DHT22;4998;51.024;13.828;2024-03-23T12:27:23;8.90;89.10
9919;DHT22;4998;51.024;13.828;2024-03-23T12:29:50;9.00;89.10
9919;DHT22;4998;51.024;13.828;2024-03-23T12:32:16;9.00;88.80
9919;DHT22;4998;51.024;13.828;2024-03-23T12:34:46;9.00;88.60
9919;DHT22;4998;51.024;13.828;2024-03-23T12:37:12;9.20;89.50
9919;DHT22;4998;51.024;13.828;2024-03-23T12:39:40;9.20;90.00
9919;DHT22;4998;51.024;13.828;2024-03-23T12:42:06;9.30;90.20
9919;DHT22;4998;51.024;13.828;2024-03-23T12:44:33;9.40;90.10
9919;DHT22;4998;51.024;13.828;2024-03-23T12:46:59;9.50;89.40
9919;DHT22;4998;51.024;13.828;2024-03-23T12:49:26;9.60;88.90
9919;DHT22;4998;51.024;13.828;2024-03-23T12:51:57;9.70;88.60
9919;DHT22;4998;51.024;13.828;2024-03-23T12:54:25;9.70;88.10
9919;DHT22;4998;51.024;13.828;2024-03-23T12:56:51;9.70;87.60
9919;DHT22;4998;51.024;13.828;2024-03-23T12:59:18;9.80;87.40
9919;DHT22;4998;51.024;13.828;2024-03-23T13:01:44;9.80;87.00
9919;DHT22;4998;51.024;13.828;2024-03-23T13:04:11;9.90;86.70
9919;DHT22;4998;51.024;13.828;2024-03-23T13:06:38;9.80;86.00
9919;DHT22;4998;51.024;13.828;2024-03-23T13:09:07;9.80;85.60
9919;DHT22;4998;51.024;13.828;2024-03-23T13:11:33;9.80;85.20
9919;DHT22;4998;51.024;13.828;2024-03-23T13:14:00;9.80;85.20
9919;DHT22;4998;51.024;13.828;2024-03-23T13:16:26;9.80;85.10
9919;DHT22;4998;51.024;13.828;2024-03-23T13:18:53;9.80;84.60
9919;DHT22;4998;51.024;13.828;2024-03-23T13:21:19;9.70;84.10
9919;DHT22;4998;51.024;13.828;2024-03-23T13:23:47;9.70;83.80
9919;DHT22;4998;51.024;13.828;2024-03-23T13:26:15;9.70;83.80
9919;DHT22;4998;51.024;13.828;2024-03-23T13:28:42;9.70;83.70
9919;DHT22;4998;51.024;13.828;2024-03-23T13:31:08;9.70;83.50
9919;DHT22;4998;51.024;13.828;2024-03-23T13:33:35;9.70;83.40
9919;DHT22;4998;51.024;13.828;2024-03-23T13:36:01;9.70;83.30
9919;DHT22;4998;51.024;13.828;2024-03-23T13:38:29;9.70;82.90
9919;DHT22;4998;51.024;13.828;2024-03-23T13:40:56;9.70;83.10
9919;DHT22;4998;51.024;13.828;2024-03-23T13:46:00;9.60;83.40
9919;DHT22;4998;51.024;13.828;2024-03-23T13:48:28;9.80;83.30
9919;DHT22;4998;51.024;13.828;2024-03-23T13:50:58;9.80;83.10
9919;DHT22;4998;51.024;13.828;2024-03-23T13:53:26;9.90;82.50
9919;DHT22;4998;51.024;13.828;2024-03-23T13:55:53;9.90;82.50
9919;DHT22;4998;51.024;13.828;2024-03-23T13:58:20;9.90;82.40
9919;DHT22;4998;51.024;13.828;2024-03-23T14:00:47;10.00;81.50
9919;DHT22;4998;51.024;13.828;2024-03-23T14:03:16;10.10;81.30
9919;DHT22;4998;51.024;13.828;2024-03-23T14:05:44;10.10;81.10
9919;DHT22;4998;51.024;13.828;2024-03-23T14:08:13;10.20;81.30
9919;DHT22;4998;51.024;13.828;2024-03-23T14:10:41;10.30;81.40
9919;DHT22;4998;51.024;13.828;2024-03-23T14:13:09;10.40;81.10
9919;DHT22;4998;51.024;13.828;2024-03-23T14:15:35;10.50;81.00
9919;DHT22;4998;51.024;13.828;2024-03-23T14:18:04;10.50;79.90
9919;DHT22;4998;51.024;13.828;2024-03-23T14:20:32;10.60;79.40
9919;DHT22;4998;51.024;13.828;2024-03-23T14:22:59;10.70;78.90
9919;DHT22;4998;51.024;13.828;2024-03-23T14:25:26;10.70;79.20
9919;DHT22;4998;51.024;13.828;2024-03-23T14:27:55;10.70;79.40
9919;DHT22;4998;51.024;13.828;2024-03-23T14:30:21;10.80;78.60
9919;DHT22;4998;51.024;13.828;2024-03-23T14:32:48;10.80;78.30
9919;DHT22;4998;51.024;13.828;2024-03-23T14:35:14;10.90;78.00
9919;DHT22;4998;51.024;13.828;2024-03-23T14:37:43;10.90;77.40
9919;DHT22;4998;51.024;13.828;2024-03-23T14:40:10;11.00;77.30
9919;DHT22;4998;51.024;13.828;2024-03-23T14:42:38;11.00;77.30
9919;DHT22;4998;51.024;13.828;2024-03-23T14:45:05;11.10;77.30
9919;DHT22;4998;51.024;13.828;2024-03-23T14:47:33;11.20;77.00
9919;DHT22;4998;51.024;13.828;2024-03-23T14:49:59;11.20;76.70
9919;DHT22;4998;51.024;13.828;2024-03-23T14:52:27;11.30;76.60
9919;DHT22;4998;51.024;13.828;2024-03-23T14:54:56;11.30;75.90
9919;DHT22;4998;51.024;13.828;2024-03-23T14:57:23;11.40;74.70
9919;DHT22;4998;51.024;13.828;2024-03-23T14:59:50;11.40;74.30
9919;DHT22;4998;51.024;13.828;2024-03-23T15:02:18;11.40;73.70
9919;DHT22;4998;51.024;13.828;2024-03-23T15:04:44;11.40;74.30
9919;DHT22;4998;51.024;13.828;2024-03-23T15:07:11;11.40;73.40
9919;DHT22;4998;51.024;13.828;2024-03-23T15:09:37;11.40;73.20
9919;DHT22;4998;51.024;13.828;2024-03-23T15:12:09;11.50;73.10
9919;DHT22;4998;51.024;13.828;2024-03-23T15:14:37;11.50;72.60
9919;DHT22;4998;51.024;13.828;2024-03-23T15:17:04;11.50;72.50
9919;DHT22;4998;51.024;13.828;2024-03-23T15:19:33;11.50;71.80
9919;DHT22;4998;51.024;13.828;2024-03-23T15:21:59;11.50;71.70
9919;DHT22;4998;51.024;13.828;2024-03-23T15:24:26;11.60;71.50
9919;DHT22;4998;51.024;13.828;2024-03-23T15:26:52;11.60;71.20
9919;DHT22;4998;51.024;13.828;2024-03-23T15:29:22;11.60;70.70
9919;DHT22;4998;51.024;13.828;2024-03-23T15:31:49;11.60;70.80
9919;DHT22;4998;51.024;13.828;2024-03-23T15:34:18;11.60;70.80
9919;DHT22;4998;51.024;13.828;2024-03-23T15:36:45;11.70;70.30
9919;DHT22;4998;51.024;13.828;2024-03-23T15:39:12;11.70;70.50
9919;DHT22;4998;51.024;13.828;2024-03-23T15:41:40;11.70;70.60
9919;DHT22;4998;51.024;13.828;2024-03-23T15:44:07;11.80;71.10
9919;DHT22;4998;51.024;13.828;2024-03-23T15:46:35;11.80;71.50
9919;DHT22;4998;51.024;13.828;2024-03-23T15:49:02;11.90;71.40
9919;DHT22;4998;51.024;13.828;2024-03-23T15:51:28;12.00;71.90
9919;DHT22;4998;51.024;13.828;2024-03-23T15:53:59;12.10;72.10
9919;DHT22;4998;51.024;13.828;2024-03-23T15:56:25;12.20;72.20
9919;DHT22;4998;51.024;13.828;2024-03-23T15:58:53;12.30;72.20
9919;DHT22;4998;51.024;13.828;2024-03-23T16:01:20;12.30;72.00
9919;DHT22;4998;51.024;13.828;2024-03-23T16:03:49;12.40;71.90
9919;DHT22;4998;51.024;13.828;2024-03-23T16:06:15;12.50;72.30
9919;DHT22;4998;51.024;13.828;2024-03-23T16:08:43;12.60;71.40
9919;DHT22;4998;51.024;13.828;2024-03-23T16:11:09;12.60;71.20
9919;DHT22;4998;51.024;13.828;2024-03-23T16:13:36;12.70;71.00
9919;DHT22;4998;51.024;13.828;2024-03-23T16:16:03;12.70;70.70
9919;DHT22;4998;51.024;13.828;2024-03-23T16:18:32;12.70;70.60
9919;DHT22;4998;51.024;13.828;2024-03-23T16:21:01;12.70;70.40
9919;DHT22;4998;51.024;13.828;2024-03-23T16:23:29;12.80;70.10
9919;DHT22;4998;51.024;13.828;2024-03-23T16:25:56;12.80;70.20
9919;DHT22;4998;51.024;13.828;2024-03-23T16:28:24;12.80;70.00
9919;DHT22;4998;51.024;13.828;2024-03-23T16:30:58;12.70;69.60
9919;DHT22;4998;51.024;13.828;2024-03-23T16:33:25;12.70;69.20
9919;DHT22;4998;51.024;13.828;2024-03-23T16:36:01;12.70;67.50
9919;DHT22;4998;51.024;13.828;2024-03-23T16:38:28;12.50;66.20
9919;DHT22;4998;51.024;13.828;2024-03-23T16:40:59;12.30;65.40
9919;DHT22;4998;51.024;13.828;2024-03-23T16:43:26;12.10;65.50
9919;DHT22;4998;51.024;13.828;2024-03-23T16:45:56;11.90;65.50